Time;durP1;ratioP1;P1;durP2;ratioP2;P2;SDS_P1;SDS_P2;PMS_P1;PMS_P2;Temp;Humidity;BMP_temperature;BMP_pressure;BME280_temperature;BME280_humidity;BME280_pressure;Samples;Min_cycle;Max_cycle;Signal;HPM_P1;HPM_P2
2022/03/09 00:00:32;;;;;;;25.38;12.73;;;;;;;2.48;57.67;102126.88;5018958;28;20261;-83
2022/03/09 00:02:57;;;;;;;22.73;11.82;;;;;;;2.46;57.17;102121.63;5025148;28;20021;-83
2022/03/09 00:05:22;;;;;;;20.58;11.63;;;;;;;2.46;57.33;102131.03;5025077;28;20033;-82
2022/03/09 00:07:48;;;;;;;23.00;11.73;;;;;;;2.43;57.01;102134.25;5025010;28;20025;-78
2022/03/09 00:10:13;;;;;;;22.50;11.20;;;;;;;2.43;56.71;102126.53;5014429;28;20022;-78
2022/03/09 00:12:38;;;;;;;18.23;10.00;;;;;;;2.41;56.74;102136.72;5022754;28;20013;-78
2022/03/09 00:15:05;;;;;;;20.90;10.77;;;;;;;2.41;56.71;102139.28;5022891;28;20049;-78
2022/03/09 00:17:30;;;;;;;22.25;11.05;;;;;;;2.42;56.51;102146.22;5023545;28;20018;-79
2022/03/09 00:19:55;;;;;;;19.38;10.85;;;;;;;2.42;56.66;102147.91;5023792;28;20009;-79
2022/03/09 00:22:21;;;;;;;18.58;10.23;;;;;;;2.42;56.33;102146.22;5022475;28;20188;-78
2022/03/09 00:24:46;;;;;;;17.08;9.85;;;;;;;2.40;56.99;102147.81;5023864;28;20029;-78
2022/03/09 00:27:11;;;;;;;19.88;10.65;;;;;;;2.37;56.35;102141.50;5023608;28;20018;-78
2022/03/09 00:29:37;;;;;;;18.55;10.63;;;;;;;2.38;56.66;102148.44;5023621;28;20260;-78
2022/03/09 00:32:03;;;;;;;21.30;10.20;;;;;;;2.36;56.45;102137.13;5023273;28;20017;-78
2022/03/09 00:34:28;;;;;;;20.23;10.07;;;;;;;2.35;56.20;102143.06;5024563;28;20026;-78
2022/03/09 00:36:54;;;;;;;19.92;10.43;;;;;;;2.34;56.19;102139.59;5023688;28;20268;-78
2022/03/09 00:39:19;;;;;;;21.08;9.98;;;;;;;2.31;57.30;102147.06;5024148;28;20089;-78
2022/03/09 00:41:45;;;;;;;20.38;9.95;;;;;;;2.28;56.20;102151.97;5023361;28;20068;-78
2022/03/09 00:44:10;;;;;;;16.40;8.95;;;;;;;2.26;57.01;102141.56;5023189;28;20028;-78
2022/03/09 00:46:36;;;;;;;17.95;9.35;;;;;;;2.26;56.63;102141.56;5022466;28;20045;-78
2022/03/09 00:49:02;;;;;;;19.63;10.35;;;;;;;2.25;56.41;102147.47;5023278;28;20092;-78
2022/03/09 00:51:27;;;;;;;17.20;9.40;;;;;;;2.24;56.61;102134.50;5024302;28;20265;-78
2022/03/09 00:53:53;;;;;;;19.23;10.05;;;;;;;2.24;56.94;102137.06;5024290;28;20013;-79
2022/03/09 00:56:18;;;;;;;19.73;10.13;;;;;;;2.22;57.22;102136.97;5024200;28;20024;-78
2022/03/09 00:58:44;;;;;;;20.08;10.10;;;;;;;2.20;56.65;102142.75;5023973;28;20026;-79
2022/03/09 01:01:10;;;;;;;19.00;9.45;;;;;;;2.18;56.80;102145.19;5020226;28;20177;-78
2022/03/09 01:03:36;;;;;;;21.02;10.25;;;;;;;2.16;56.20;102146.78;5020517;28;20031;-79
2022/03/09 01:06:02;;;;;;;19.17;9.93;;;;;;;2.15;56.69;102144.97;5024271;28;20045;-79
2022/03/09 01:08:28;;;;;;;18.02;9.98;;;;;;;2.16;56.91;102135.56;5023031;28;20358;-79
2022/03/09 01:10:53;;;;;;;17.52;9.25;;;;;;;2.17;57.18;102138.28;5022030;28;20022;-79
2022/03/09 01:13:19;;;;;;;20.40;9.32;;;;;;;2.17;57.02;102143.44;5011264;28;20014;-78
2022/03/09 01:15:44;;;;;;;22.42;9.50;;;;;;;2.18;56.56;102149.47;5018490;28;20345;-78
2022/03/09 01:18:09;;;;;;;17.60;9.43;;;;;;;2.16;56.16;102146.78;5023487;28;20045;-79
2022/03/09 01:20:35;;;;;;;18.92;10.15;;;;;;;2.16;56.17;102146.78;5023248;28;20224;-78
2022/03/09 01:23:00;;;;;;;19.40;9.45;;;;;;;2.17;56.72;102142.50;5023174;28;20217;-78
2022/03/09 01:25:25;;;;;;;18.67;10.23;;;;;;;2.14;56.96;102138.03;5022656;28;20036;-78
2022/03/09 01:27:51;;;;;;;31.90;10.77;;;;;;;2.13;56.42;102141.41;5023207;28;20017;-78
2022/03/09 01:30:16;;;;;;;21.55;10.93;;;;;;;2.09;57.08;102147.06;5023178;28;20018;-79
2022/03/09 01:32:41;;;;;;;21.08;11.13;;;;;;;2.04;57.34;102157.00;5021335;28;20093;-79
2022/03/09 01:35:07;;;;;;;21.08;10.93;;;;;;;2.00;57.43;102148.88;5022005;28;20326;-79
2022/03/09 01:37:33;;;;;;;20.08;10.93;;;;;;;1.95;57.55;102143.38;5021283;28;20026;-79
2022/03/09 01:39:58;;;;;;;21.13;10.43;;;;;;;1.89;57.51;102141.22;5022009;28;20442;-79
2022/03/09 01:42:23;;;;;;;23.15;10.90;;;;;;;1.86;57.42;102140.97;5023009;28;20022;-79
2022/03/09 01:44:48;;;;;;;20.75;10.70;;;;;;;1.81;57.33;102138.81;5023218;28;20022;-79
2022/03/09 01:47:14;;;;;;;23.15;11.38;;;;;;;1.78;57.44;102136.91;5023090;28;20112;-79
2022/03/09 01:49:39;;;;;;;23.42;11.07;;;;;;;1.74;57.96;102140.03;5022259;28;20034;-79
2022/03/09 01:52:06;;;;;;;20.02;10.45;;;;;;;1.68;57.54;102136.94;5023237;28;20052;-79
2022/03/09 01:54:31;;;;;;;21.23;11.38;;;;;;;1.66;58.09;102134.25;5022851;28;20041;-79
2022/03/09 01:56:59;;;;;;;22.20;11.20;;;;;;;1.62;57.61;102136.44;5022991;28;20022;-79
2022/03/09 01:59:25;;;;;;;20.80;10.63;;;;;;;1.54;58.21;102130.72;5022220;28;20034;-79
2022/03/09 02:01:50;;;;;;;19.63;10.38;;;;;;;1.50;58.46;102134.69;5022621;28;20029;-79
2022/03/09 02:04:17;;;;;;;24.85;11.30;;;;;;;1.46;58.50;102126.59;5022992;28;20036;-79
2022/03/09 02:06:44;;;;;;;19.52;11.02;;;;;;;1.38;58.42;102128.56;5022388;28;20037;-79
2022/03/09 02:11:55;;;;;;;22.35;10.98;;;;;;;1.28;59.51;102131.16;5015081;28;20025;-79
2022/03/09 02:14:49;;;;;;;21.08;10.30;;;;;;;1.26;58.81;102130.13;5021442;28;20041;-79
2022/03/09 02:17:19;;;;;;;19.50;10.40;;;;;;;1.17;59.49;102128.59;5021592;28;20057;-79
2022/03/09 02:19:48;;;;;;;19.98;10.45;;;;;;;1.11;59.62;102133.22;5022039;28;20022;-79
2022/03/09 02:22:20;;;;;;;19.73;9.70;;;;;;;1.08;59.40;102140.66;5021588;28;20080;-79
2022/03/09 02:24:46;;;;;;;19.85;10.10;;;;;;;1.04;59.50;102134.41;5022598;28;20072;-79
2022/03/09 02:27:12;;;;;;;22.00;10.35;;;;;;;0.99;59.39;102129.66;5015587;28;20026;-79
2022/03/09 02:29:38;;;;;;;20.15;9.88;;;;;;;0.96;59.90;102131.97;5021207;28;20052;-79
2022/03/09 02:32:04;;;;;;;21.27;10.40;;;;;;;0.92;59.72;102133.38;5021648;28;20068;-79
2022/03/09 02:34:30;;;;;;;20.50;10.77;;;;;;;0.89;59.79;102129.66;5021244;28;20069;-79
2022/03/09 02:36:55;;;;;;;24.00;10.60;;;;;;;0.86;59.45;102131.19;5022762;28;20022;-85
2022/03/09 02:39:21;;;;;;;22.75;10.95;;;;;;;0.84;59.50;102119.91;5022243;28;20097;-84
2022/03/09 02:41:46;;;;;;;20.48;9.90;;;;;;;0.82;58.75;102120.53;5021612;28;20172;-84
2022/03/09 02:44:12;;;;;;;20.40;10.77;;;;;;;0.77;59.66;102115.03;5022084;28;20033;-85
2022/03/09 02:46:37;;;;;;;22.05;10.68;;;;;;;0.75;60.20;102116.56;5026089;28;20133;-84
2022/03/09 02:49:02;;;;;;;20.58;9.85;;;;;;;0.76;60.06;102109.78;5026021;28;20026;-84
2022/03/09 02:51:27;;;;;;;22.35;10.20;;;;;;;0.74;60.30;102112.22;5026053;28;20029;-84
2022/03/09 02:53:53;;;;;;;19.48;9.90;;;;;;;0.73;60.37;102107.84;5026074;28;20017;-84
2022/03/09 02:56:18;;;;;;;19.73;9.77;;;;;;;0.71;60.50;102108.47;5025255;28;20025;-85
2022/03/09 02:58:44;;;;;;;20.77;9.88;;;;;;;0.72;60.70;102103.47;5026069;28;20017;-84
2022/03/09 03:01:12;;;;;;;19.77;9.45;;;;;;;0.74;59.98;102104.50;5025106;28;20324;-85
2022/03/09 03:03:38;;;;;;;21.48;10.32;;;;;;;0.74;60.53;102108.72;5025994;28;20030;-84
2022/03/09 03:06:03;;;;;;;21.02;10.57;;;;;;;0.73;60.38;102110.41;5025630;28;20044;-84
2022/03/09 03:08:30;;;;;;;20.92;10.40;;;;;;;0.71;60.57;102109.41;5022218;28;20252;-79
2022/03/09 03:10:55;;;;;;;18.83;10.30;;;;;;;0.68;60.67;102103.97;5025665;28;20029;-79
2022/03/09 03:13:21;;;;;;;20.77;10.48;;;;;;;0.68;61.11;102114.25;5025704;28;20030;-79
2022/03/09 03:15:46;;;;;;;21.27;10.63;;;;;;;0.65;60.69;102114.00;5024354;28;20292;-79
2022/03/09 03:18:11;;;;;;;21.40;10.73;;;;;;;0.59;60.94;102110.91;5025421;28;20238;-79
2022/03/09 03:20:37;;;;;;;23.02;11.70;;;;;;;0.57;60.95;102109.91;5024998;28;20022;-79
2022/03/09 03:23:02;;;;;;;23.20;11.05;;;;;;;0.58;61.00;102111.66;5025383;28;20013;-79
2022/03/09 03:25:27;;;;;;;21.70;11.18;;;;;;;0.59;60.97;102113.47;5025335;28;20021;-78
2022/03/09 03:27:52;;;;;;;24.48;11.63;;;;;;;0.57;62.13;102105.66;5024546;28;20048;-78
2022/03/09 03:30:18;;;;;;;24.20;10.90;;;;;;;0.57;62.18;102108.22;5025224;28;20022;-78
2022/03/09 03:32:43;;;;;;;22.52;11.13;;;;;;;0.56;61.27;102113.22;5024757;28;20264;-78
2022/03/09 03:35:09;;;;;;;20.45;11.02;;;;;;;0.52;61.69;102112.97;5016475;28;20084;-78
2022/03/09 03:37:34;;;;;;;25.33;11.27;;;;;;;0.47;61.62;102111.66;5024114;28;20040;-78
2022/03/09 03:39:59;;;;;;;24.13;11.88;;;;;;;0.44;61.54;102110.53;5023673;28;20108;-78
2022/03/09 03:42:25;;;;;;;20.40;10.88;;;;;;;0.43;61.87;102117.28;5023953;28;20014;-78
2022/03/09 03:44:51;;;;;;;23.48;11.10;;;;;;;0.42;62.22;102106.91;5025021;28;20071;-78
2022/03/09 03:47:16;;;;;;;22.70;11.25;;;;;;;0.42;61.79;102110.41;5021163;28;20025;-78
2022/03/09 03:49:41;;;;;;;21.48;11.02;;;;;;;0.42;61.55;102110.41;5025233;28;20044;-78
2022/03/09 03:52:07;;;;;;;22.70;10.98;;;;;;;0.43;62.24;102116.41;5023757;28;20029;-78
2022/03/09 03:54:32;;;;;;;23.65;10.10;;;;;;;0.43;62.17;102111.28;5024708;28;20068;-78
2022/03/09 03:56:57;;;;;;;23.45;10.75;;;;;;;0.44;62.30;102111.41;5023784;28;20073;-78
2022/03/09 03:59:22;;;;;;;23.05;10.95;;;;;;;0.45;62.41;102112.28;5024985;28;20021;-78
2022/03/09 04:01:48;;;;;;;26.10;11.18;;;;;;;0.44;62.22;102113.97;5024829;28;20085;-78
2022/03/09 04:04:13;;;;;;;22.10;10.30;;;;;;;0.45;62.30;102109.72;5025185;28;20320;-78
2022/03/09 04:06:38;;;;;;;23.40;10.65;;;;;;;0.45;62.03;102113.22;5024585;28;20030;-77
2022/03/09 04:09:04;;;;;;;23.70;11.07;;;;;;;0.44;62.04;102113.97;5024291;28;20303;-77
2022/03/09 04:11:29;;;;;;;21.52;10.68;;;;;;;0.47;62.28;102119.34;5023889;28;20026;-77
2022/03/09 04:13:54;;;;;;;22.30;10.40;;;;;;;0.48;61.79;102118.59;5024453;28;20161;-77
2022/03/09 04:16:20;;;;;;;22.15;11.70;;;;;;;0.50;62.23;102113.59;5024409;28;20022;-77
2022/03/09 04:18:45;;;;;;;23.08;11.40;;;;;;;0.50;62.05;102117.06;5024302;28;20096;-78
2022/03/09 04:21:10;;;;;;;23.70;10.77;;;;;;;0.50;62.48;102121.28;5022469;28;20021;-78
2022/03/09 04:23:36;;;;;;;22.65;11.10;;;;;;;0.51;62.48;102112.84;5024301;28;20057;-77
2022/03/09 04:26:01;;;;;;;21.58;10.73;;;;;;;0.50;62.86;102109.34;5023049;28;20049;-77
2022/03/09 04:28:27;;;;;;;22.15;11.70;;;;;;;0.55;62.18;102111.41;5024599;28;20009;-77
2022/03/09 04:30:52;;;;;;;21.67;10.32;;;;;;;0.56;61.59;102108.97;5019521;28;20018;-77
2022/03/09 04:33:17;;;;;;;21.67;11.13;;;;;;;0.59;62.35;102098.09;5024145;28;20025;-77
2022/03/09 04:35:42;;;;;;;21.75;10.88;;;;;;;0.61;61.34;102099.09;5024074;28;20208;-77
2022/03/09 04:38:08;;;;;;;21.63;11.10;;;;;;;0.62;61.36;102103.47;5024025;28;20207;-77
2022/03/09 04:40:33;;;;;;;23.77;11.77;;;;;;;0.62;61.42;102103.47;5023339;28;20013;-77
2022/03/09 04:42:58;;;;;;;24.30;11.27;;;;;;;0.59;62.00;102103.22;5023968;28;20022;-77
2022/03/09 04:45:24;;;;;;;23.38;11.27;;;;;;;0.59;61.61;102098.09;5023384;28;20037;-77
2022/03/09 04:47:49;;;;;;;23.17;12.43;;;;;;;0.60;61.27;102094.78;5022301;28;20022;-77
2022/03/09 04:50:14;;;;;;;24.25;12.40;;;;;;;0.59;61.59;102098.09;5023997;28;20022;-77
2022/03/09 04:52:40;;;;;;;20.10;10.57;;;;;;;0.57;61.28;102099.66;5023615;28;20033;-77
2022/03/09 04:55:06;;;;;;;20.58;11.13;;;;;;;0.57;61.02;102102.22;5023856;28;20014;-77
2022/03/09 04:57:31;;;;;;;23.73;11.05;;;;;;;0.57;61.57;102099.66;5023591;28;20029;-77
2022/03/09 04:59:56;;;;;;;21.15;11.18;;;;;;;0.57;61.45;102104.78;5024044;28;20021;-77
2022/03/09 05:02:22;;;;;;;19.30;10.15;;;;;;;0.56;61.84;102102.97;5022187;28;20014;-77
2022/03/09 05:04:47;;;;;;;22.25;11.00;;;;;;;0.54;61.21;102099.34;5023707;28;20020;-77
2022/03/09 05:07:12;;;;;;;22.70;10.48;;;;;;;0.50;61.58;102104.22;5022951;28;20017;-77
2022/03/09 05:09:38;;;;;;;21.92;10.45;;;;;;;0.46;62.27;102102.16;5022165;28;20036;-77
2022/03/09 05:12:03;;;;;;;20.25;9.98;;;;;;;0.41;61.71;102103.47;5022579;28;20152;-77
2022/03/09 05:14:29;;;;;;;21.75;9.63;;;;;;;0.37;62.33;102106.53;5023033;28;20168;-77
2022/03/09 05:16:54;;;;;;;23.15;11.23;;;;;;;0.35;62.30;102100.38;5021874;28;20024;-77
2022/03/09 05:19:20;;;;;;;23.75;11.30;;;;;;;0.30;62.52;102099.09;5023593;28;20017;-77
2022/03/09 05:21:45;;;;;;;20.42;9.68;;;;;;;0.27;62.98;102104.84;5023355;28;20161;-77
2022/03/09 05:24:10;;;;;;;21.10;10.27;;;;;;;0.24;63.28;102098.56;5023333;28;20025;-77
2022/03/09 05:26:36;;;;;;;21.75;10.98;;;;;;;0.22;63.21;102110.34;5023287;28;20056;-77
2022/03/09 05:29:02;;;;;;;18.63;9.82;;;;;;;0.20;62.13;102106.75;5023389;28;20085;-77
2022/03/09 05:31:29;;;;;;;22.77;10.48;;;;;;;0.18;62.60;102111.75;5022475;28;20022;-77
2022/03/09 05:33:54;;;;;;;24.60;10.65;;;;;;;0.15;62.70;102109.81;5023571;28;20021;-77
2022/03/09 05:36:19;;;;;;;20.05;10.13;;;;;;;0.15;62.89;102114.06;5023248;28;20037;-77
2022/03/09 05:38:45;;;;;;;21.20;9.95;;;;;;;0.14;62.88;102112.25;5023337;28;20030;-77
2022/03/09 05:41:10;;;;;;;21.17;10.15;;;;;;;0.10;62.67;102108.53;5020280;28;20073;-77
2022/03/09 05:43:36;;;;;;;22.45;10.18;;;;;;;0.10;63.12;102116.22;5015495;28;20157;-77
2022/03/09 05:46:01;;;;;;;22.67;10.52;;;;;;;0.06;63.37;102118.38;5010008;28;20021;-76
2022/03/09 05:48:27;;;;;;;24.35;10.75;;;;;;;0.06;63.18;102118.38;5017737;28;20051;-76
2022/03/09 05:50:52;;;;;;;23.48;11.23;;;;;;;0.04;63.42;102120.81;5022878;28;20018;-76
2022/03/09 05:53:17;;;;;;;20.88;10.63;;;;;;;0.03;63.45;102126.72;5023119;28;20017;-77
2022/03/09 05:55:42;;;;;;;23.42;10.88;;;;;;;0.02;63.45;102140.28;5021885;28;20052;-77
2022/03/09 05:58:08;;;;;;;24.27;11.27;;;;;;;0.01;62.89;102141.03;5022370;28;20085;-76
2022/03/09 06:00:34;;;;;;;20.33;10.27;;;;;;;0.00;63.28;102136.69;5022862;28;20026;-76
2022/03/09 06:02:59;;;;;;;21.45;10.25;;;;;;;0.01;63.78;102142.72;5023531;28;20021;-76
2022/03/09 06:05:25;;;;;;;18.40;9.98;;;;;;;0.01;63.33;102148.72;5022945;28;20188;-77
2022/03/09 06:07:50;;;;;;;21.70;9.90;;;;;;;0.01;63.62;102151.28;5023167;28;20034;-77
2022/03/09 06:10:16;;;;;;;21.15;10.30;;;;;;;0.01;63.46;102153.84;5021467;28;20025;-77
2022/03/09 06:12:41;;;;;;;23.02;10.30;;;;;;;0.02;63.34;102153.09;5021053;28;20017;-77
2022/03/09 06:15:08;;;;;;;19.75;9.70;;;;;;;0.02;63.44;102147.97;5021579;28;20034;-77
2022/03/09 06:17:44;;;;;;;20.67;10.07;;;;;;;0.03;63.51;102151.41;5022987;28;20025;-83
2022/03/09 06:20:11;;;;;;;20.38;9.43;;;;;;;0.03;63.96;102152.34;5025750;28;20067;-83
2022/03/09 06:22:37;;;;;;;20.30;9.38;;;;;;;0.03;63.80;102154.91;5020611;28;20173;-83
2022/03/09 06:25:02;;;;;;;24.35;10.45;;;;;;;0.02;63.85;102158.22;5026578;28;20090;-83
2022/03/09 06:27:27;;;;;;;20.00;9.82;;;;;;;0.01;64.15;102155.53;5026403;28;20056;-83
2022/03/09 06:29:55;;;;;;;22.38;10.07;;;;;;;0.01;63.73;102158.09;5026125;28;20161;-83
2022/03/09 06:32:21;;;;;;;20.98;9.25;;;;;;;0.02;64.33;102160.78;5025355;28;20071;-83
2022/03/09 06:34:46;;;;;;;23.98;10.05;;;;;;;0.02;63.92;102159.91;5026613;28;20104;-83
2022/03/09 06:37:11;;;;;;;21.65;10.07;;;;;;;0.03;63.67;102165.16;5025440;28;20488;-83
2022/03/09 06:39:36;;;;;;;22.25;10.23;;;;;;;0.03;63.68;102165.16;5014817;28;20084;-83
2022/03/09 06:42:02;;;;;;;22.50;11.55;;;;;;;0.05;63.97;102166.16;5026144;28;20040;-83
2022/03/09 06:44:27;;;;;;;22.60;9.90;;;;;;;0.09;63.88;102175.94;5021803;28;20065;-83
2022/03/09 06:46:52;;;;;;;20.75;10.32;;;;;;;0.12;63.92;102173.63;5024190;28;20308;-83
2022/03/09 06:49:18;;;;;;;23.63;10.40;;;;;;;0.17;64.27;102184.28;5024531;28;20085;-83
2022/03/09 06:51:43;;;;;;;21.38;11.05;;;;;;;0.26;64.46;102179.97;5025059;28;20014;-83
2022/03/09 06:54:08;;;;;;;25.23;10.70;;;;;;;0.34;63.73;102188.31;5026392;28;20037;-81
2022/03/09 06:56:34;;;;;;;22.15;10.60;;;;;;;0.38;63.27;102200.63;5026398;28;20013;-83
2022/03/09 06:58:59;;;;;;;23.15;10.43;;;;;;;0.45;64.30;102202.97;5025112;28;20053;-84
2022/03/09 07:01:24;;;;;;;21.23;9.93;;;;;;;0.62;63.81;102196.72;5022446;28;20076;-84
2022/03/09 07:03:49;;;;;;;21.60;10.55;;;;;;;0.73;63.35;102197.63;5024067;28;20034;-84
2022/03/09 07:06:15;;;;;;;24.75;11.18;;;;;;;0.80;62.81;102193.94;5025905;28;20450;-83
2022/03/09 07:08:40;;;;;;;22.80;10.75;;;;;;;0.84;63.22;102199.44;5026155;28;20029;-82
2022/03/09 07:11:05;;;;;;;21.23;10.52;;;;;;;0.90;62.50;102200.72;5025735;28;20025;-83
2022/03/09 07:13:31;;;;;;;22.05;10.65;;;;;;;0.92;62.02;102206.91;5025759;28;20347;-83
2022/03/09 07:15:56;;;;;;;21.35;10.63;;;;;;;0.97;62.54;102206.50;5025081;28;20045;-84
2022/03/09 07:18:21;;;;;;;22.42;10.32;;;;;;;1.04;61.74;102205.34;5020821;28;20076;-77
2022/03/09 07:20:47;;;;;;;22.73;10.55;;;;;;;1.10;61.65;102198.19;5025641;28;20065;-77
2022/03/09 07:23:12;;;;;;;21.52;11.05;;;;;;;1.16;61.77;102208.03;5024172;28;20204;-77
2022/03/09 07:25:38;;;;;;;23.25;10.48;;;;;;;1.19;61.27;102206.63;5025896;28;20044;-77
2022/03/09 07:28:05;;;;;;;21.27;9.75;;;;;;;1.19;61.30;102208.31;5025064;28;20086;-77
2022/03/09 07:30:31;;;;;;;23.98;10.40;;;;;;;1.20;61.96;102200.75;5024350;28;20022;-77
2022/03/09 07:32:56;;;;;;;22.38;9.88;;;;;;;1.34;61.26;102198.41;5018394;28;20041;-77
2022/03/09 07:35:22;;;;;;;22.55;10.45;;;;;;;1.53;61.70;102200.81;5014938;28;20509;-77
2022/03/09 07:37:51;;;;;;;23.30;11.07;;;;;;;1.84;60.22;102209.38;5013274;28;20026;-77
2022/03/09 07:40:16;;;;;;;22.52;10.65;;;;;;;2.24;59.96;102202.25;5010774;28;20022;-76
2022/03/09 07:42:41;;;;;;;23.38;10.05;;;;;;;2.84;57.19;102200.91;5018664;28;20018;-77
2022/03/09 07:45:07;;;;;;;23.10;10.45;;;;;;;3.03;56.71;102189.44;5009693;28;20022;-77
2022/03/09 07:47:34;;;;;;;28.48;10.45;;;;;;;3.11;55.81;102189.22;5013245;28;20021;-83
2022/03/09 07:49:59;;;;;;;23.75;10.65;;;;;;;3.06;56.52;102187.09;5013723;28;20025;-82
2022/03/09 07:52:25;;;;;;;21.30;10.57;;;;;;;3.17;56.00;102196.50;5018505;28;20040;-83
2022/03/09 07:54:50;;;;;;;21.05;10.10;;;;;;;3.28;55.65;102193.03;5013075;28;20088;-83
2022/03/09 07:57:15;;;;;;;23.88;11.15;;;;;;;3.49;55.59;102192.88;5023878;28;20025;-83
2022/03/09 07:59:40;;;;;;;21.08;11.38;;;;;;;3.97;53.77;102192.09;5016862;28;20336;-82
2022/03/09 08:02:07;;;;;;;19.58;11.43;;;;;;;4.43;52.66;102194.47;5018643;28;20378;-82
2022/03/09 08:04:32;;;;;;;23.25;11.15;;;;;;;4.83;51.26;102188.59;5015392;28;20030;-83
2022/03/09 08:06:57;;;;;;;21.85;10.73;;;;;;;5.07;51.41;102197.13;5022698;28;20018;-82
2022/03/09 08:09:23;;;;;;;19.50;10.63;;;;;;;5.21;50.66;102200.63;5016041;28;20010;-81
2022/03/09 08:11:48;;;;;;;21.10;10.93;;;;;;;5.19;50.04;102202.22;5023636;28;20187;-82
2022/03/09 08:14:15;;;;;;;19.42;10.10;;;;;;;4.90;50.99;102208.88;5016819;28;20257;-82
2022/03/09 08:16:40;;;;;;;22.05;10.60;;;;;;;4.55;51.25;102219.31;5016221;28;20277;-81
2022/03/09 08:19:06;;;;;;;20.88;10.80;;;;;;;4.23;52.65;102216.28;5011144;28;20028;-81
2022/03/09 08:21:31;;;;;;;21.73;10.80;;;;;;;4.03;53.22;102226.81;5014522;28;20037;-81
2022/03/09 08:23:57;;;;;;;23.98;11.43;;;;;;;3.82;53.04;102227.97;5017973;28;20049;-80
2022/03/09 08:26:22;;;;;;;20.85;10.88;;;;;;;3.73;53.88;102224.69;5014347;28;20022;-80
2022/03/09 08:28:47;;;;;;;23.63;10.63;;;;;;;3.69;54.37;102221.78;5015131;28;20077;-80
2022/03/09 08:31:13;;;;;;;22.50;11.20;;;;;;;3.68;54.73;102230.28;5016158;28;20042;-80
2022/03/09 08:33:38;;;;;;;20.65;11.18;;;;;;;3.67;54.11;102223.38;5006401;28;20272;-80
2022/03/09 08:36:04;;;;;;;23.48;11.48;;;;;;;3.70;53.13;102221.00;5019829;28;20292;-81
2022/03/09 08:38:29;;;;;;;23.35;10.90;;;;;;;3.72;54.67;102217.78;5021145;28;20088;-81
2022/03/09 08:40:55;;;;;;;24.60;11.57;;;;;;;3.77;54.61;102220.69;5031712;28;20056;-81
2022/03/09 08:43:21;;;;;;;21.42;10.77;;;;;;;3.83;54.46;102227.16;5016317;28;20022;-82
2022/03/09 08:45:46;;;;;;;22.30;10.88;;;;;;;3.89;52.81;102225.84;5018415;28;20081;-82
2022/03/09 08:48:12;;;;;;;21.40;10.38;;;;;;;3.96;54.02;102231.53;5023135;28;20040;-84
2022/03/09 08:50:37;;;;;;;24.63;11.65;;;;;;;4.04;53.00;102234.69;5023265;28;20060;-84
2022/03/09 08:53:03;;;;;;;21.48;10.40;;;;;;;4.10;52.54;102239.38;5016893;28;20210;-85
2022/03/09 08:55:28;;;;;;;21.23;10.40;;;;;;;4.18;52.38;102233.09;5023278;28;20014;-85
2022/03/09 08:57:54;;;;;;;23.75;11.70;;;;;;;4.27;52.59;102238.00;5024366;28;20276;-85
2022/03/09 09:00:19;;;;;;;22.88;11.40;;;;;;;4.33;52.17;102226.47;5020632;28;20121;-85
2022/03/09 09:02:45;;;;;;;25.70;11.38;;;;;;;4.41;51.60;102233.84;5015425;28;20048;-85
2022/03/09 09:05:10;;;;;;;21.45;11.10;;;;;;;4.47;52.47;102231.69;5020103;28;20180;-85
2022/03/09 09:07:37;;;;;;;24.08;12.30;;;;;;;4.55;51.64;102229.66;5013331;28;20060;-85
2022/03/09 09:10:03;;;;;;;25.63;11.85;;;;;;;4.65;51.72;102234.66;5022805;28;20060;-85
2022/03/09 09:12:30;;;;;;;23.45;11.38;;;;;;;4.75;51.58;102231.03;5022829;28;20088;-85
2022/03/09 09:14:55;;;;;;;21.27;11.43;;;;;;;4.83;51.58;102224.75;5022509;28;20033;-85
2022/03/09 09:17:20;;;;;;;23.00;11.50;;;;;;;4.92;50.47;102222.78;5023639;28;20041;-84
2022/03/09 09:19:46;;;;;;;24.38;11.40;;;;;;;5.00;50.53;102213.00;5022610;28;20093;-84
2022/03/09 09:22:12;;;;;;;24.20;12.02;;;;;;;5.11;51.51;102213.72;5018197;28;20018;-83
2022/03/09 09:24:37;;;;;;;21.63;11.35;;;;;;;5.21;50.77;102221.28;5024012;28;20049;-84
2022/03/09 09:27:03;;;;;;;24.73;11.88;;;;;;;5.30;50.24;102218.44;5023764;28;20261;-82
2022/03/09 09:29:28;;;;;;;22.65;11.25;;;;;;;5.40;50.23;102216.56;5010225;28;20026;-83
2022/03/09 09:31:54;;;;;;;23.05;11.57;;;;;;;5.51;49.58;102218.97;5023245;28;20018;-82
2022/03/09 09:34:19;;;;;;;22.50;12.32;;;;;;;5.60;50.84;102219.56;5021895;28;20195;-83
2022/03/09 09:36:46;;;;;;;27.05;12.88;;;;;;;5.73;49.74;102221.28;5019950;28;20207;-82
2022/03/09 09:39:16;;;;;;;25.42;12.85;;;;;;;5.84;49.89;102215.13;5023679;28;20029;-82
2022/03/09 09:41:43;;;;;;;28.63;12.77;;;;;;;5.95;51.08;102217.50;5022968;28;20033;-81
2022/03/09 09:44:13;;;;;;;27.83;12.80;;;;;;;6.07;49.94;102219.22;5022439;28;20032;-80
2022/03/09 09:46:40;;;;;;;25.00;12.63;;;;;;;6.16;49.71;102223.22;5023319;28;20029;-82
2022/03/09 09:49:08;;;;;;;22.25;11.98;;;;;;;6.26;49.10;102220.41;5023621;28;20020;-81
2022/03/09 09:51:34;;;;;;;24.80;12.68;;;;;;;6.37;49.00;102214.22;5021817;28;20261;-81
2022/03/09 09:53:59;;;;;;;25.75;13.07;;;;;;;6.46;48.04;102220.75;5023684;28;20021;-80
2022/03/09 09:56:25;;;;;;;24.02;12.45;;;;;;;6.53;49.18;102212.56;5026762;28;20029;-80
2022/03/09 09:58:50;;;;;;;26.48;13.20;;;;;;;6.64;48.53;102216.72;5027372;28;20021;-79
2022/03/09 10:01:15;;;;;;;24.50;12.73;;;;;;;6.73;48.68;102216.38;5025855;28;20034;-80
2022/03/09 10:03:41;;;;;;;27.70;13.68;;;;;;;6.81;50.61;102217.75;5027497;28;20180;-80
2022/03/09 10:06:06;;;;;;;29.65;13.55;;;;;;;6.88;47.27;102212.16;5025875;28;20018;-80
2022/03/09 10:08:31;;;;;;;27.02;13.68;;;;;;;6.94;47.69;102212.50;5027470;28;20064;-81
2022/03/09 10:11:03;;;;;;;29.95;13.93;;;;;;;7.05;48.02;102212.25;5012885;28;20026;-81
2022/03/09 10:13:29;;;;;;;31.02;14.02;;;;;;;7.12;48.03;102222.19;5026488;28;20172;-80
2022/03/09 10:16:16;;;;;;;25.35;12.95;;;;;;;7.23;48.79;102215.97;5025726;28;20113;-80
2022/03/09 10:19:01;;;;;;;26.30;13.02;;;;;;;7.34;48.57;102216.56;5018060;28;20022;-80
2022/03/09 10:21:30;;;;;;;27.80;14.38;;;;;;;7.43;48.64;102209.34;5026936;28;20088;-80
2022/03/09 10:24:01;;;;;;;29.70;14.15;;;;;;;7.51;48.08;102204.59;5025907;28;20018;-80
2022/03/09 10:26:43;;;;;;;26.63;13.70;;;;;;;7.62;47.58;102205.25;5027181;28;20005;-81
2022/03/09 10:29:14;;;;;;;29.00;14.65;;;;;;;7.73;48.41;102205.84;5026857;28;20026;-80
2022/03/09 10:31:41;;;;;;;27.48;14.27;;;;;;;7.83;48.21;102198.69;5027044;28;20172;-80
2022/03/09 10:34:14;;;;;;;27.27;14.45;;;;;;;7.94;48.04;102199.28;5024327;28;20188;-80
2022/03/09 10:37:02;;;;;;;30.13;14.90;;;;;;;8.04;46.12;102195.50;5025075;28;20063;-80
2022/03/09 10:39:37;;;;;;;30.73;14.13;;;;;;;8.11;46.02;102197.63;5019767;28;20030;-81
2022/03/09 10:42:04;;;;;;;28.77;14.60;;;;;;;8.20;46.38;102189.47;5018833;28;20022;-73
2022/03/09 10:44:44;;;;;;;29.63;15.32;;;;;;;8.31;47.88;102196.13;5012888;28;20022;-73
2022/03/09 10:47:10;;;;;;;28.58;14.38;;;;;;;8.39;45.86;102193.94;5015196;28;20030;-73
2022/03/09 10:49:35;;;;;;;29.25;15.15;;;;;;;8.49;46.12;102200.56;5008967;28;20100;-73
2022/03/09 10:52:00;;;;;;;33.95;14.57;;;;;;;8.60;46.96;102196.81;5019435;28;20101;-73
2022/03/09 10:54:28;;;;;;;28.92;15.30;;;;;;;8.69;46.28;102193.84;5026692;28;20012;-74
2022/03/09 10:57:12;;;;;;;30.58;15.30;;;;;;;8.81;46.94;102189.28;5026613;28;20025;-73
2022/03/09 10:59:46;;;;;;;33.78;15.90;;;;;;;8.93;45.46;102194.22;5026436;28;20276;-73
2022/03/09 11:02:14;;;;;;;32.15;15.38;;;;;;;9.03;47.40;102196.47;5025595;28;20014;-73
2022/03/09 11:04:40;;;;;;;32.63;15.93;;;;;;;9.13;46.41;102190.06;5026264;28;20253;-73
2022/03/09 11:07:06;;;;;;;32.25;16.73;;;;;;;9.21;44.40;102195.63;5025333;28;20026;-73
2022/03/09 11:09:32;;;;;;;33.40;16.33;;;;;;;9.25;44.64;102194.09;5026397;28;20022;-73
2022/03/09 11:11:57;;;;;;;34.72;17.48;;;;;;;9.33;45.15;102195.41;5025202;28;20080;-73
2022/03/09 11:14:26;;;;;;;32.60;17.10;;;;;;;9.43;45.96;102192.44;5011453;28;20014;-73
2022/03/09 11:16:53;;;;;;;37.73;17.03;;;;;;;9.50;44.57;102194.53;5026368;28;20033;-79